createdAt,value
2022-10-07T00:00:27.698Z,1.30
2022-10-07T00:01:27.783Z,0.90
2022-10-07T00:02:27.758Z,1.10
2022-10-07T00:03:27.658Z,1.10
2022-10-07T00:04:28.058Z,1.00
2022-10-07T00:05:27.640Z,1.30
2022-10-07T00:06:27.618Z,1.10
2022-10-07T00:07:27.606Z,1.00
2022-10-07T00:08:27.596Z,1.40
2022-10-07T00:09:27.997Z,0.90
2022-10-07T00:10:27.568Z,1.20
2022-10-07T00:11:27.555Z,1.30
2022-10-07T00:12:27.538Z,1.30
2022-10-07T00:13:27.524Z,1.20
2022-10-07T00:14:27.859Z,1.10
2022-10-07T00:15:27.497Z,1.20
2022-10-07T00:16:27.531Z,1.00
2022-10-07T00:17:27.477Z,1.50
2022-10-07T00:18:27.456Z,1.20
2022-10-07T00:19:27.765Z,1.00
2022-10-07T00:20:27.429Z,1.20
2022-10-07T00:21:27.433Z,0.90
2022-10-07T00:22:27.407Z,1.30
2022-10-07T00:23:34.412Z,1.20
2022-10-07T00:24:27.370Z,1.30
2022-10-07T00:25:27.780Z,1.10
2022-10-07T00:26:27.351Z,1.20
2022-10-07T00:27:27.434Z,1.40
2022-10-07T00:28:27.447Z,1.50
2022-10-07T00:29:27.711Z,1.30
2022-10-07T00:30:27.349Z,1.10
2022-10-07T00:31:27.290Z,1.30
2022-10-07T00:32:27.271Z,1.10
2022-10-07T00:33:27.280Z,1.10
2022-10-07T00:34:27.257Z,1.20
2022-10-07T00:35:27.620Z,1.40
2022-10-07T00:36:27.228Z,0.90
2022-10-07T00:37:27.219Z,1.20
2022-10-07T00:38:27.212Z,1.20
2022-10-07T00:39:27.611Z,1.10
2022-10-07T00:40:27.179Z,1.00
2022-10-07T00:41:27.173Z,1.00
2022-10-07T00:42:27.151Z,1.00
2022-10-07T00:43:27.140Z,1.20
2022-10-07T00:44:27.487Z,1.20
2022-10-07T00:45:27.114Z,1.00
2022-10-07T00:46:27.098Z,1.10
2022-10-07T00:47:27.080Z,1.10
2022-10-07T00:48:27.086Z,1.10
2022-10-07T00:49:27.490Z,1.30
2022-10-07T00:50:27.037Z,1.30
2022-10-07T00:51:27.029Z,1.10
2022-10-07T00:52:27.127Z,1.30
2022-10-07T00:53:26.996Z,1.20
2022-10-07T00:54:26.987Z,1.40
2022-10-07T00:55:27.384Z,1.40
2022-10-07T00:56:26.955Z,1.20
2022-10-07T00:57:26.945Z,1.30
2022-10-07T00:58:26.925Z,1.10
2022-10-07T00:59:27.255Z,1.50
2022-10-07T01:00:26.903Z,1.20
2022-10-07T01:01:26.970Z,1.30
2022-10-07T01:02:26.930Z,1.00
2022-10-07T01:03:26.864Z,1.10
2022-10-07T01:04:27.164Z,1.10
2022-10-07T01:05:26.833Z,1.00
2022-10-07T01:06:26.822Z,0.80
2022-10-07T01:07:26.806Z,1.30
2022-10-07T01:08:26.793Z,1.10
2022-10-07T01:09:27.206Z,1.10
2022-10-07T01:10:26.766Z,1.40
2022-10-07T01:11:26.764Z,1.30
2022-10-07T01:12:26.744Z,1.10
2022-10-07T01:13:26.740Z,1.20
2022-10-07T01:14:27.123Z,1.00
2022-10-07T01:15:26.696Z,1.00
2022-10-07T01:16:26.736Z,1.30
2022-10-07T01:17:26.671Z,0.80
2022-10-07T01:18:26.663Z,1.00
2022-10-07T01:19:26.993Z,1.10
2022-10-07T01:20:26.631Z,1.00
2022-10-07T01:21:26.613Z,1.10
2022-10-07T01:22:26.607Z,1.00
2022-10-07T01:23:26.589Z,1.30
2022-10-07T01:24:26.942Z,1.30
2022-10-07T01:25:26.567Z,1.00
2022-10-07T01:26:26.552Z,1.10
2022-10-07T01:27:26.543Z,1.20
2022-10-07T01:28:26.559Z,1.10
2022-10-07T01:29:26.820Z,1.00
2022-10-07T01:30:26.505Z,1.20
2022-10-07T01:31:26.489Z,1.30
2022-10-07T01:32:26.480Z,1.30
2022-10-07T01:33:26.459Z,1.10
2022-10-07T01:34:26.863Z,1.00
2022-10-07T01:35:26.431Z,1.20
2022-10-07T01:36:26.430Z,1.20
2022-10-07T01:37:26.402Z,1.20
2022-10-07T01:38:26.397Z,1.10
2022-10-07T01:39:26.758Z,1.30
2022-10-07T01:40:26.367Z,1.10
2022-10-07T01:41:26.350Z,1.20
2022-10-07T01:42:26.346Z,1.60
2022-10-07T01:43:26.328Z,1.00
2022-10-07T01:44:26.637Z,1.30
2022-10-07T01:45:26.297Z,1.20
2022-10-07T01:46:26.383Z,1.00
2022-10-07T01:47:26.267Z,1.30
2022-10-07T01:48:26.269Z,0.80
2022-10-07T01:49:26.657Z,1.00
2022-10-07T01:50:26.236Z,1.20
2022-10-07T01:51:26.216Z,1.00
2022-10-07T01:52:26.219Z,1.00
2022-10-07T01:53:26.195Z,1.30
2022-10-07T01:54:26.586Z,1.30
2022-10-07T01:55:26.166Z,1.20
2022-10-07T01:56:26.156Z,1.10
2022-10-07T01:57:26.135Z,0.90
2022-10-07T01:58:26.134Z,1.30
2022-10-07T01:59:26.475Z,1.10
2022-10-07T02:00:26.106Z,1.00
2022-10-07T02:01:26.172Z,1.40
2022-10-07T02:02:26.080Z,1.00
2022-10-07T02:03:26.110Z,1.10
2022-10-07T02:04:26.465Z,1.10
2022-10-07T02:05:26.041Z,1.20
2022-10-07T02:06:26.024Z,1.10
2022-10-07T02:07:26.003Z,1.40
2022-10-07T02:08:26.004Z,1.20
2022-10-07T02:09:26.414Z,1.20
2022-10-07T02:10:25.969Z,1.00
2022-10-07T02:11:25.957Z,1.40
2022-10-07T02:12:25.943Z,0.80
2022-10-07T02:13:25.932Z,1.10
2022-10-07T02:14:25.914Z,1.30
2022-10-07T02:15:26.322Z,1.20
2022-10-07T02:16:25.938Z,1.20
2022-10-07T02:17:25.870Z,1.10
2022-10-07T02:18:25.861Z,1.20
2022-10-07T02:19:26.205Z,1.20
2022-10-07T02:20:25.833Z,1.10
2022-10-07T02:21:25.888Z,1.10
2022-10-07T02:22:25.804Z,1.60
2022-10-07T02:23:25.803Z,1.10
2022-10-07T02:24:25.792Z,1.20
2022-10-07T02:25:26.090Z,1.50
2022-10-07T02:26:25.755Z,1.20
2022-10-07T02:27:25.769Z,1.10
2022-10-07T02:28:25.838Z,0.90
2022-10-07T02:29:26.129Z,1.10
2022-10-07T02:30:25.708Z,0.90
2022-10-07T02:31:25.805Z,1.20
2022-10-07T02:32:25.663Z,1.20
2022-10-07T02:33:25.650Z,1.10
2022-10-07T02:34:25.647Z,1.40
2022-10-07T02:35:26.027Z,1.10
2022-10-07T02:36:25.608Z,1.20
2022-10-07T02:37:25.599Z,1.00
2022-10-07T02:38:25.588Z,1.10
2022-10-07T02:39:25.885Z,1.20
2022-10-07T02:40:25.558Z,1.20
2022-10-07T02:41:25.549Z,1.10
2022-10-07T02:42:25.527Z,1.20
2022-10-07T02:43:25.508Z,1.40
2022-10-07T02:44:25.515Z,0.80
2022-10-07T02:45:26.976Z,1.10
2022-10-07T02:46:25.491Z,1.00
2022-10-07T02:47:25.463Z,1.20
2022-10-07T02:48:25.448Z,1.20
2022-10-07T02:49:25.849Z,1.10
2022-10-07T02:50:25.428Z,1.10
2022-10-07T02:51:25.405Z,1.20
2022-10-07T02:52:25.387Z,1.10
2022-10-07T02:53:25.376Z,1.10
2022-10-07T02:54:25.365Z,1.10
2022-10-07T02:55:25.752Z,1.10
2022-10-07T02:56:25.335Z,0.90
2022-10-07T02:57:25.317Z,1.40
2022-10-07T02:58:25.318Z,0.70
2022-10-07T02:59:25.730Z,1.00
2022-10-07T03:00:25.287Z,1.10
2022-10-07T03:01:25.342Z,1.10
2022-10-07T03:02:25.304Z,1.00
2022-10-07T03:03:25.308Z,1.30
2022-10-07T03:04:25.642Z,1.00
2022-10-07T03:05:25.215Z,0.90
2022-10-07T03:06:25.205Z,1.00
2022-10-07T03:07:25.184Z,1.10
2022-10-07T03:08:25.173Z,1.20
2022-10-07T03:09:25.504Z,1.30
2022-10-07T03:10:25.152Z,1.10
2022-10-07T03:11:25.135Z,1.20
2022-10-07T03:12:25.114Z,0.90
2022-10-07T03:13:25.109Z,1.20
2022-10-07T03:14:25.435Z,1.30
2022-10-07T03:15:25.080Z,1.10
2022-10-07T03:16:25.106Z,1.10
2022-10-07T03:17:25.046Z,1.00
2022-10-07T03:18:25.041Z,1.10
2022-10-07T03:19:25.441Z,1.20
2022-10-07T03:20:25.012Z,1.00
2022-10-07T03:21:24.999Z,1.00
2022-10-07T03:22:24.981Z,0.90
2022-10-07T03:23:24.976Z,1.30
2022-10-07T03:24:25.328Z,1.20
2022-10-07T03:25:24.949Z,1.00
2022-10-07T03:26:24.929Z,0.90
2022-10-07T03:27:24.929Z,1.10
2022-10-07T03:28:24.985Z,1.00
2022-10-07T03:29:25.237Z,1.00
2022-10-07T03:30:24.890Z,0.80
2022-10-07T03:31:24.925Z,1.20
2022-10-07T03:32:24.858Z,1.40
2022-10-07T03:33:24.838Z,1.20
2022-10-07T03:34:25.259Z,1.20
2022-10-07T03:35:24.821Z,1.60
2022-10-07T03:36:24.807Z,2.00
2022-10-07T03:37:24.788Z,1.30
2022-10-07T03:38:24.769Z,1.40
2022-10-07T03:39:25.170Z,1.40
2022-10-07T03:40:24.747Z,1.30
2022-10-07T03:41:24.737Z,1.10
2022-10-07T03:42:24.718Z,1.10
2022-10-07T03:43:24.705Z,0.90
2022-10-07T03:44:25.046Z,1.30
2022-10-07T03:45:24.676Z,1.00
2022-10-07T03:46:24.725Z,1.20
2022-10-07T03:47:24.656Z,1.50
2022-10-07T03:48:32.632Z,1.10
2022-10-07T03:49:24.928Z,1.20
2022-10-07T03:50:24.607Z,1.10
2022-10-07T03:51:24.602Z,1.20
2022-10-07T03:52:24.577Z,1.10
2022-10-07T03:53:24.596Z,1.00
2022-10-07T03:54:24.957Z,1.00
2022-10-07T03:55:31.558Z,1.20
2022-10-07T03:56:24.527Z,1.10
2022-10-07T03:57:24.526Z,1.20
2022-10-07T03:58:24.508Z,1.00
2022-10-07T03:59:24.896Z,1.00
2022-10-07T04:00:30.603Z,1.10
2022-10-07T04:01:24.549Z,0.90
2022-10-07T04:02:24.459Z,1.20
2022-10-07T04:03:24.561Z,1.00
2022-10-07T04:04:24.440Z,1.10
2022-10-07T04:05:24.806Z,1.30
2022-10-07T04:06:24.405Z,1.00
2022-10-07T04:07:24.396Z,1.10
2022-10-07T04:08:24.375Z,1.00
2022-10-07T04:09:24.805Z,1.10
2022-10-07T04:10:24.358Z,1.20
2022-10-07T04:11:24.365Z,0.90
2022-10-07T04:12:24.334Z,1.10
2022-10-07T04:13:24.311Z,1.30
2022-10-07T04:14:24.663Z,1.20
2022-10-07T04:15:24.282Z,1.20
2022-10-07T04:16:24.340Z,1.20
2022-10-07T04:17:24.272Z,1.40
2022-10-07T04:18:24.241Z,1.20
2022-10-07T04:19:24.526Z,1.20
2022-10-07T04:20:24.222Z,1.30
2022-10-07T04:21:24.244Z,1.40
2022-10-07T04:22:24.192Z,1.40
2022-10-07T04:23:24.184Z,1.10
2022-10-07T04:24:24.171Z,1.20
2022-10-07T04:25:24.192Z,1.30
2022-10-07T04:26:24.140Z,1.10
2022-10-07T04:27:46.815Z,1.40
2022-10-07T04:28:25.163Z,1.30
2022-10-07T04:29:24.521Z,1.30
2022-10-07T04:30:24.106Z,1.20
2022-10-07T04:31:24.145Z,1.20
2022-10-07T04:32:24.069Z,1.30
2022-10-07T04:33:24.049Z,1.20
2022-10-07T04:34:24.069Z,1.00
2022-10-07T04:35:24.469Z,1.20
2022-10-07T04:36:24.008Z,1.40
2022-10-07T04:37:24.000Z,1.20
2022-10-07T04:38:28.110Z,1.10
2022-10-07T04:39:37.424Z,1.40
2022-10-07T04:40:24.949Z,1.10
2022-10-07T04:41:23.949Z,1.10
2022-10-07T04:42:23.952Z,1.20
2022-10-07T04:43:23.917Z,1.30
2022-10-07T04:44:23.929Z,1.20
2022-10-07T04:45:23.890Z,1.10
2022-10-07T04:46:23.935Z,1.10
2022-10-07T04:47:23.868Z,1.20
2022-10-07T04:48:23.851Z,1.10
2022-10-07T04:49:24.115Z,1.00
2022-10-07T04:50:23.822Z,1.00
2022-10-07T04:51:23.827Z,1.30
2022-10-07T04:52:23.787Z,1.10
2022-10-07T04:53:23.784Z,1.00
2022-10-07T04:54:24.075Z,1.60
2022-10-07T04:55:23.758Z,1.40
2022-10-07T04:56:23.734Z,1.00
2022-10-07T04:57:23.765Z,1.10
2022-10-07T04:58:23.718Z,1.40
2022-10-07T04:59:25.488Z,1.20
2022-10-07T05:00:23.687Z,1.10
2022-10-07T05:01:23.718Z,1.10
2022-10-07T05:02:23.702Z,1.20
2022-10-07T05:03:23.655Z,1.20
2022-10-07T05:04:24.033Z,1.20
2022-10-07T05:05:23.630Z,1.10
2022-10-07T05:06:23.611Z,1.00
2022-10-07T05:07:23.615Z,1.20
2022-10-07T05:08:23.595Z,1.20
2022-10-07T05:09:23.922Z,1.20
2022-10-07T05:10:23.564Z,1.10
2022-10-07T05:11:23.558Z,1.00
2022-10-07T05:12:23.540Z,1.10
2022-10-07T05:13:23.529Z,1.00
2022-10-07T05:14:23.733Z,1.00
2022-10-07T05:15:23.554Z,1.30
2022-10-07T05:16:23.690Z,1.20
2022-10-07T05:17:23.510Z,1.40
2022-10-07T05:18:23.471Z,1.10
2022-10-07T05:19:23.822Z,1.10
2022-10-07T05:20:23.430Z,1.20
2022-10-07T05:21:23.433Z,1.20
2022-10-07T05:22:23.407Z,1.00
2022-10-07T05:23:28.155Z,1.20
2022-10-07T05:24:25.242Z,1.10
2022-10-07T05:25:23.418Z,1.10
2022-10-07T05:26:23.362Z,1.10
2022-10-07T05:27:23.350Z,1.20
2022-10-07T05:28:23.395Z,1.10
2022-10-07T05:29:23.388Z,1.40
2022-10-07T05:30:23.310Z,1.10
2022-10-07T05:31:23.381Z,1.20
2022-10-07T05:32:23.287Z,1.30
2022-10-07T05:33:23.277Z,1.00
2022-10-07T05:34:23.284Z,1.30
2022-10-07T05:35:23.584Z,1.20
2022-10-07T05:36:23.226Z,1.20
2022-10-07T05:37:23.225Z,1.10
2022-10-07T05:38:23.209Z,1.10
2022-10-07T05:39:23.691Z,1.00
2022-10-07T05:40:23.186Z,1.10
2022-10-07T05:41:23.200Z,1.30
2022-10-07T05:42:23.170Z,1.50
2022-10-07T05:43:23.154Z,1.00
2022-10-07T05:44:23.483Z,1.10
2022-10-07T05:45:23.132Z,1.10
2022-10-07T05:46:23.240Z,1.20
2022-10-07T05:47:23.154Z,1.00
2022-10-07T05:48:23.084Z,1.00
2022-10-07T05:49:23.534Z,1.20
2022-10-07T05:50:23.070Z,1.20
2022-10-07T05:51:23.063Z,0.80
2022-10-07T05:52:23.043Z,1.00
2022-10-07T05:53:23.013Z,0.90
2022-10-07T05:54:23.353Z,1.30
2022-10-07T05:55:23.003Z,1.10
2022-10-07T05:56:23.012Z,1.20
2022-10-07T05:57:22.971Z,1.00
2022-10-07T05:58:22.951Z,1.10
2022-10-07T05:59:23.391Z,1.20
2022-10-07T06:00:22.959Z,1.00
2022-10-07T06:01:22.931Z,1.10
2022-10-07T06:02:23.049Z,1.00
2022-10-07T06:03:22.965Z,1.20
2022-10-07T06:04:22.909Z,1.40
2022-10-07T06:05:22.870Z,1.40
2022-10-07T06:06:22.853Z,1.30
2022-10-07T06:07:25.671Z,1.20
2022-10-07T06:08:23.836Z,1.10
2022-10-07T06:09:22.850Z,0.80
2022-10-07T06:10:22.808Z,0.90
2022-10-07T06:11:22.789Z,1.10
2022-10-07T06:12:22.799Z,1.20
2022-10-07T06:13:22.777Z,2.30
2022-10-07T06:14:23.192Z,1.30
2022-10-07T06:15:22.748Z,2.90
2022-10-07T06:16:22.795Z,3.20
2022-10-07T06:17:22.719Z,1.60
2022-10-07T06:18:22.722Z,2.90
2022-10-07T06:19:23.072Z,3.10
2022-10-07T06:20:22.688Z,2.10
2022-10-07T06:21:22.664Z,2.10
2022-10-07T06:22:22.649Z,1.50
2022-10-07T06:23:22.642Z,1.90
2022-10-07T06:24:23.055Z,1.80
2022-10-07T06:25:22.615Z,1.60
2022-10-07T06:26:22.635Z,1.60
2022-10-07T06:27:22.596Z,1.50
2022-10-07T06:28:22.599Z,1.40
2022-10-07T06:29:22.974Z,1.50
2022-10-07T06:30:22.602Z,1.40
2022-10-07T06:31:22.743Z,1.80
2022-10-07T06:32:22.504Z,1.60
2022-10-07T06:33:22.514Z,1.30
2022-10-07T06:34:22.843Z,1.50
2022-10-07T06:35:22.484Z,1.30
2022-10-07T06:36:22.483Z,1.40
2022-10-07T06:37:22.450Z,1.20
2022-10-07T06:38:22.473Z,1.40
2022-10-07T06:39:22.739Z,1.30
2022-10-07T06:40:22.412Z,1.10
2022-10-07T06:41:22.406Z,1.30
2022-10-07T06:42:22.396Z,1.30
2022-10-07T06:43:22.371Z,1.10
2022-10-07T06:44:22.789Z,1.40
2022-10-07T06:45:22.379Z,1.30
2022-10-07T06:46:22.372Z,1.30
2022-10-07T06:47:22.312Z,1.10
2022-10-07T06:48:22.300Z,1.60
2022-10-07T06:49:22.641Z,1.20
2022-10-07T06:50:22.283Z,1.20
2022-10-07T06:51:22.259Z,1.40
2022-10-07T06:52:22.241Z,1.40
2022-10-07T06:53:22.260Z,1.40
2022-10-07T06:54:22.228Z,1.40
2022-10-07T06:55:22.507Z,1.40
2022-10-07T06:56:22.209Z,1.30
2022-10-07T06:57:44.414Z,1.40
2022-10-07T06:58:23.165Z,1.60
2022-10-07T06:59:22.513Z,1.50
2022-10-07T07:00:22.148Z,1.20
2022-10-07T07:01:22.173Z,1.10
2022-10-07T07:02:22.194Z,1.40
2022-10-07T07:03:22.105Z,1.40
2022-10-07T07:04:22.097Z,1.20
2022-10-07T07:05:22.429Z,1.40
2022-10-07T07:06:22.098Z,1.10
2022-10-07T07:07:22.062Z,1.40
2022-10-07T07:08:22.072Z,1.30
2022-10-07T07:09:22.426Z,1.10
2022-10-07T07:10:22.052Z,1.50
2022-10-07T07:11:22.125Z,1.30
2022-10-07T07:12:21.976Z,1.20
2022-10-07T07:13:21.987Z,1.10
2022-10-07T07:14:21.958Z,1.20
2022-10-07T07:15:22.356Z,1.20
2022-10-07T07:16:21.961Z,1.20
2022-10-07T07:17:21.907Z,1.30
2022-10-07T07:18:21.896Z,1.10
2022-10-07T07:19:22.308Z,1.20
2022-10-07T07:20:28.868Z,1.40
2022-10-07T07:21:28.894Z,1.40
2022-10-07T07:22:43.354Z,1.30
2022-10-07T07:23:21.843Z,1.10
2022-10-07T07:24:29.223Z,1.20
2022-10-07T07:25:30.132Z,1.20
2022-10-07T07:26:29.799Z,1.50
2022-10-07T07:27:28.779Z,1.40
2022-10-07T07:28:28.834Z,1.50
2022-10-07T07:29:28.790Z,1.60
2022-10-07T07:30:21.739Z,1.30
2022-10-07T07:31:21.826Z,1.40
2022-10-07T07:32:21.746Z,1.40
2022-10-07T07:33:21.718Z,1.30
2022-10-07T07:34:22.050Z,1.20
2022-10-07T07:35:21.748Z,1.40
2022-10-07T07:36:21.658Z,1.50
2022-10-07T07:37:28.655Z,1.50
2022-10-07T07:38:28.661Z,1.10
2022-10-07T07:39:29.069Z,1.40
2022-10-07T07:40:28.625Z,1.30
2022-10-07T07:41:21.596Z,1.50
2022-10-07T07:42:21.575Z,1.30
2022-10-07T07:43:21.605Z,1.20
2022-10-07T07:44:21.863Z,1.30
2022-10-07T07:45:21.556Z,1.40
2022-10-07T07:46:28.546Z,1.70
2022-10-07T07:47:28.523Z,1.50
2022-10-07T07:48:21.502Z,1.40
2022-10-07T07:49:21.920Z,1.40
2022-10-07T07:50:21.494Z,1.40
2022-10-07T07:51:21.465Z,1.40
2022-10-07T07:52:21.460Z,1.40
2022-10-07T07:53:21.442Z,1.50
2022-10-07T07:54:21.780Z,1.50
2022-10-07T07:55:21.413Z,1.30
2022-10-07T07:56:21.404Z,1.30
2022-10-07T07:57:21.386Z,1.60
2022-10-07T07:58:21.380Z,1.30
2022-10-07T07:59:21.801Z,1.30
2022-10-07T08:00:21.360Z,1.40
2022-10-07T08:01:21.387Z,1.40
2022-10-07T08:02:21.408Z,1.60
2022-10-07T08:03:21.324Z,1.50
2022-10-07T08:04:21.302Z,1.30
2022-10-07T08:05:24.071Z,1.50
2022-10-07T08:06:21.285Z,1.50
2022-10-07T08:07:21.252Z,1.50
2022-10-07T08:08:21.241Z,1.30
2022-10-07T08:09:21.576Z,1.50
2022-10-07T08:10:21.230Z,1.20
2022-10-07T08:11:21.220Z,1.60
2022-10-07T08:12:21.258Z,1.40
2022-10-07T08:13:21.181Z,1.50
2022-10-07T08:14:21.180Z,1.40
2022-10-07T08:15:21.590Z,1.60
2022-10-07T08:16:21.317Z,1.30
2022-10-07T08:17:21.179Z,1.00
2022-10-07T08:18:21.130Z,1.40
2022-10-07T08:19:21.147Z,1.30
2022-10-07T08:20:21.099Z,1.40
2022-10-07T08:21:21.122Z,1.10
2022-10-07T08:22:21.152Z,1.40
2022-10-07T08:23:21.172Z,1.30
2022-10-07T08:24:21.057Z,1.10
2022-10-07T08:25:21.069Z,1.10
2022-10-07T08:26:21.030Z,1.20
2022-10-07T08:27:21.123Z,1.20
2022-10-07T08:28:21.122Z,1.10
2022-10-07T08:29:21.378Z,1.20
2022-10-07T08:30:20.966Z,1.40
2022-10-07T08:31:21.047Z,1.10
2022-10-07T08:32:20.954Z,1.30
2022-10-07T08:33:21.091Z,1.10
2022-10-07T08:34:21.020Z,1.30
2022-10-07T08:35:21.339Z,1.30
2022-10-07T08:36:20.871Z,1.10
2022-10-07T08:37:20.881Z,1.30
2022-10-07T08:38:20.929Z,1.10
2022-10-07T08:39:20.999Z,1.10
2022-10-07T08:40:20.920Z,1.30
2022-10-07T08:41:20.969Z,1.20
2022-10-07T08:42:20.799Z,1.30
2022-10-07T08:43:20.779Z,1.30
2022-10-07T08:44:20.819Z,1.40
2022-10-07T08:45:21.178Z,1.30
2022-10-07T08:46:21.032Z,1.20
2022-10-07T08:47:20.777Z,1.00
2022-10-07T08:48:20.757Z,1.20
2022-10-07T08:49:20.988Z,1.10
2022-10-07T08:50:20.750Z,1.30
2022-10-07T08:51:20.820Z,1.30
2022-10-07T08:52:20.778Z,1.10
2022-10-07T08:53:20.695Z,1.50
2022-10-07T08:54:20.640Z,1.30
2022-10-07T08:55:21.067Z,1.50
2022-10-07T08:56:20.728Z,1.20
2022-10-07T08:57:20.776Z,1.40
2022-10-07T08:58:20.598Z,1.10
2022-10-07T08:59:20.977Z,1.50
2022-10-07T09:00:20.614Z,1.80
2022-10-07T09:01:20.614Z,1.30
2022-10-07T09:02:20.778Z,1.40
2022-10-07T09:03:24.991Z,1.40
2022-10-07T09:04:20.536Z,1.40
2022-10-07T09:05:20.516Z,1.40
2022-10-07T09:06:20.509Z,1.30
2022-10-07T09:07:20.475Z,1.70
2022-10-07T09:08:20.559Z,1.20
2022-10-07T09:09:20.867Z,1.30
2022-10-07T09:10:20.451Z,1.50
2022-10-07T09:11:20.422Z,1.20
2022-10-07T09:12:20.408Z,1.20
2022-10-07T09:13:20.400Z,1.30
2022-10-07T09:14:20.816Z,1.50
2022-10-07T09:15:20.358Z,1.40
2022-10-07T09:16:20.354Z,1.30
2022-10-07T09:17:20.351Z,1.10
2022-10-07T09:18:20.433Z,1.50
2022-10-07T09:19:20.715Z,1.50
2022-10-07T09:20:20.368Z,1.50
2022-10-07T09:21:20.320Z,1.30
2022-10-07T09:22:20.419Z,1.30
2022-10-07T09:23:20.276Z,1.30
2022-10-07T09:24:20.575Z,1.20
2022-10-07T09:25:20.236Z,1.60
2022-10-07T09:26:20.226Z,1.60
2022-10-07T09:27:20.209Z,1.30
2022-10-07T09:28:20.265Z,1.50
2022-10-07T09:29:20.564Z,1.50
2022-10-07T09:30:20.235Z,1.60
2022-10-07T09:31:20.189Z,1.40
2022-10-07T09:32:20.338Z,1.50
2022-10-07T09:33:20.297Z,1.20
2022-10-07T09:34:20.305Z,1.30
2022-10-07T09:35:20.094Z,1.40
2022-10-07T09:36:20.103Z,1.40
2022-10-07T09:37:20.094Z,1.60
2022-10-07T09:38:20.064Z,1.40
2022-10-07T09:39:20.112Z,1.60
2022-10-07T09:40:20.069Z,1.70
2022-10-07T09:41:20.064Z,1.70
2022-10-07T09:42:20.028Z,1.40
2022-10-07T09:43:20.001Z,1.60
2022-10-07T09:44:20.204Z,1.70
2022-10-07T09:45:19.977Z,1.50
2022-10-07T09:46:20.028Z,1.60
2022-10-07T09:47:19.934Z,1.40
2022-10-07T09:48:19.950Z,1.50
2022-10-07T09:49:24.325Z,1.70
2022-10-07T09:50:19.974Z,1.60
2022-10-07T09:51:20.004Z,1.70
2022-10-07T09:52:20.102Z,1.80
2022-10-07T09:53:19.997Z,1.60
2022-10-07T09:54:20.551Z,1.90
2022-10-07T09:55:19.842Z,1.50
2022-10-07T09:56:21.482Z,2.10
2022-10-07T09:57:19.812Z,1.40
2022-10-07T09:58:19.800Z,1.70
2022-10-07T09:59:19.811Z,1.70
2022-10-07T10:00:19.802Z,1.60
2022-10-07T10:01:19.752Z,1.70
2022-10-07T10:02:19.805Z,1.60
2022-10-07T10:03:19.826Z,1.80
2022-10-07T10:04:19.923Z,1.60
2022-10-07T10:05:19.733Z,1.90
2022-10-07T10:06:19.711Z,1.50
2022-10-07T10:07:19.820Z,1.90
2022-10-07T10:08:19.671Z,1.70
2022-10-07T10:09:20.372Z,1.70
2022-10-07T10:10:19.750Z,1.80
2022-10-07T10:11:19.641Z,1.70
2022-10-07T10:12:19.611Z,1.90
2022-10-07T10:13:19.620Z,1.70
2022-10-07T10:14:19.623Z,1.80
2022-10-07T10:15:19.570Z,1.70
2022-10-07T10:16:19.619Z,1.80
2022-10-07T10:17:19.570Z,1.80
2022-10-07T10:18:19.531Z,1.60
2022-10-07T10:19:19.881Z,1.60
2022-10-07T10:20:19.627Z,1.50
2022-10-07T10:21:19.498Z,1.70
2022-10-07T10:22:19.480Z,1.60
2022-10-07T10:23:19.492Z,1.90
2022-10-07T10:24:19.769Z,1.70
2022-10-07T10:25:19.473Z,1.70
2022-10-07T10:26:19.431Z,2.00
2022-10-07T10:27:19.426Z,1.70
2022-10-07T10:28:19.438Z,1.80
2022-10-07T10:29:19.758Z,1.90
2022-10-07T10:30:19.382Z,1.70
2022-10-07T10:31:19.409Z,1.90
2022-10-07T10:32:20.309Z,2.00
2022-10-07T10:33:19.368Z,1.70
2022-10-07T10:34:19.360Z,1.60
2022-10-07T10:35:19.331Z,1.60
2022-10-07T10:36:19.295Z,1.70
2022-10-07T10:37:19.282Z,1.80
2022-10-07T10:38:19.280Z,1.70
2022-10-07T10:39:19.588Z,1.80
2022-10-07T10:40:19.344Z,1.70
2022-10-07T10:41:19.935Z,1.70
2022-10-07T10:42:19.221Z,2.00
2022-10-07T10:43:19.211Z,1.80
2022-10-07T10:44:19.539Z,1.90
2022-10-07T10:45:19.180Z,1.70
2022-10-07T10:46:19.202Z,2.20
2022-10-07T10:47:19.177Z,1.90
2022-10-07T10:48:19.158Z,2.00
2022-10-07T10:49:19.159Z,1.90
2022-10-07T10:50:19.151Z,1.70
2022-10-07T10:51:19.107Z,1.90
2022-10-07T10:52:19.089Z,1.70
2022-10-07T10:53:19.082Z,1.80
2022-10-07T10:54:19.487Z,1.70
2022-10-07T10:55:19.057Z,1.90
2022-10-07T10:56:19.040Z,3.20
2022-10-07T10:57:19.027Z,2.20
2022-10-07T10:58:19.048Z,2.00
2022-10-07T10:59:19.301Z,1.80
2022-10-07T11:00:18.993Z,1.80
2022-10-07T11:01:18.966Z,1.90
2022-10-07T11:02:19.184Z,1.90
2022-10-07T11:03:19.016Z,1.80
2022-10-07T11:04:19.326Z,1.70
2022-10-07T11:05:18.923Z,1.40
2022-10-07T11:06:18.909Z,2.00
2022-10-07T11:07:18.955Z,1.50
2022-10-07T11:08:19.126Z,1.70
2022-10-07T11:09:18.911Z,2.10
2022-10-07T11:10:18.858Z,1.70
2022-10-07T11:11:18.854Z,2.00
2022-10-07T11:12:18.824Z,1.90
2022-10-07T11:13:18.806Z,1.90
2022-10-07T11:14:19.235Z,2.10
2022-10-07T11:15:18.845Z,1.80
2022-10-07T11:16:18.795Z,2.00
2022-10-07T11:17:18.775Z,1.90
2022-10-07T11:18:18.745Z,1.60
2022-10-07T11:19:18.754Z,1.60
2022-10-07T11:20:18.727Z,1.80
2022-10-07T11:21:18.706Z,1.90
2022-10-07T11:22:18.694Z,1.80
2022-10-07T11:23:18.675Z,1.80
2022-10-07T11:24:39.946Z,1.80
2022-10-07T11:25:18.675Z,1.80
2022-10-07T11:26:18.632Z,1.70
2022-10-07T11:27:18.627Z,2.10
2022-10-07T11:28:18.636Z,1.70
2022-10-07T11:29:18.654Z,1.60
2022-10-07T11:30:18.596Z,2.20
2022-10-07T11:31:18.594Z,1.90
2022-10-07T11:32:18.556Z,2.40
2022-10-07T11:33:18.579Z,2.70
2022-10-07T11:34:18.528Z,2.60
2022-10-07T11:35:18.575Z,2.00
2022-10-07T11:36:18.505Z,1.60
2022-10-07T11:37:18.498Z,1.80
2022-10-07T11:38:18.510Z,1.60
2022-10-07T11:39:18.464Z,1.50
2022-10-07T11:40:18.891Z,2.00
2022-10-07T11:41:18.446Z,2.00
2022-10-07T11:42:18.495Z,1.80
2022-10-07T11:43:18.401Z,1.80
2022-10-07T11:44:18.404Z,2.00
2022-10-07T11:45:18.793Z,1.80
2022-10-07T11:46:18.418Z,1.70
2022-10-07T11:47:18.357Z,2.00
2022-10-07T11:48:18.335Z,1.70
2022-10-07T11:49:18.331Z,1.70
2022-10-07T11:50:18.764Z,2.00
2022-10-07T11:51:18.304Z,1.70
2022-10-07T11:52:18.283Z,1.90
2022-10-07T11:53:18.274Z,1.90
2022-10-07T11:54:18.273Z,1.70
2022-10-07T11:55:18.682Z,1.70
2022-10-07T11:56:18.232Z,1.90
2022-10-07T11:57:18.228Z,1.60
2022-10-07T11:58:18.212Z,1.90
2022-10-07T11:59:18.192Z,1.60
2022-10-07T12:00:18.354Z,1.80
2022-10-07T12:01:18.182Z,1.90
2022-10-07T12:02:18.280Z,1.60
2022-10-07T12:03:18.256Z,1.80
2022-10-07T12:04:18.379Z,1.60
2022-10-07T12:05:25.438Z,1.80
2022-10-07T12:06:18.116Z,1.50
2022-10-07T12:07:18.157Z,1.60
2022-10-07T12:08:26.140Z,1.70
2022-10-07T12:09:26.125Z,1.70
2022-10-07T12:10:18.362Z,1.70
2022-10-07T12:11:25.039Z,1.60
2022-10-07T12:12:25.617Z,1.70
2022-10-07T12:13:18.007Z,1.60
2022-10-07T12:14:26.322Z,1.70
2022-10-07T12:15:18.001Z,1.70
2022-10-07T12:16:18.064Z,1.50
2022-10-07T12:17:18.060Z,1.60
2022-10-07T12:18:17.942Z,1.70
2022-10-07T12:19:21.041Z,1.60
2022-10-07T12:20:19.608Z,1.60
2022-10-07T12:21:18.171Z,1.70
2022-10-07T12:22:17.901Z,1.50
2022-10-07T12:23:17.880Z,1.80
2022-10-07T12:24:17.860Z,1.50
2022-10-07T12:25:17.892Z,1.60
2022-10-07T12:26:17.851Z,1.40
2022-10-07T12:27:17.829Z,1.50
2022-10-07T12:28:17.842Z,1.60
2022-10-07T12:29:17.808Z,1.70
2022-10-07T12:30:18.211Z,1.80
2022-10-07T12:31:17.857Z,1.60
2022-10-07T12:32:17.787Z,1.70
2022-10-07T12:33:17.737Z,1.40
2022-10-07T12:34:17.818Z,1.40
2022-10-07T12:35:17.947Z,1.90
2022-10-07T12:36:17.859Z,2.00
2022-10-07T12:37:17.793Z,1.60
2022-10-07T12:38:17.679Z,1.50
2022-10-07T12:39:17.658Z,1.60
2022-10-07T12:40:18.096Z,1.40
2022-10-07T12:41:17.638Z,1.90
2022-10-07T12:42:17.623Z,1.70
2022-10-07T12:43:17.618Z,1.80
2022-10-07T12:44:17.618Z,1.60
2022-10-07T12:45:17.907Z,1.50
2022-10-07T12:46:17.670Z,1.40
2022-10-07T12:47:18.545Z,1.50
2022-10-07T12:48:17.553Z,1.60
2022-10-07T12:49:17.547Z,1.60
2022-10-07T12:50:17.815Z,1.30
2022-10-07T12:51:17.579Z,1.50
2022-10-07T12:52:17.498Z,1.60
2022-10-07T12:53:17.477Z,1.40
2022-10-07T12:54:17.458Z,1.50
2022-10-07T12:55:17.486Z,1.60
2022-10-07T12:56:17.446Z,1.60
2022-10-07T12:57:17.415Z,1.70
2022-10-07T12:58:17.416Z,1.80
2022-10-07T12:59:17.445Z,1.50
2022-10-07T13:00:17.687Z,1.60
2022-10-07T13:01:17.541Z,1.50
2022-10-07T13:02:17.533Z,1.70
2022-10-07T13:03:17.357Z,1.90
2022-10-07T13:04:17.327Z,1.50
2022-10-07T13:05:17.751Z,1.70
2022-10-07T13:06:17.308Z,1.60
2022-10-07T13:07:17.293Z,1.60
2022-10-07T13:08:17.277Z,1.40
2022-10-07T13:09:17.269Z,1.50
2022-10-07T13:10:17.288Z,1.30
2022-10-07T13:11:17.427Z,1.60
2022-10-07T13:12:17.229Z,1.50
2022-10-07T13:13:17.213Z,1.70
2022-10-07T13:14:17.195Z,1.50
2022-10-07T13:15:17.516Z,1.60
2022-10-07T13:16:17.209Z,1.40
2022-10-07T13:17:17.168Z,1.60
2022-10-07T13:18:17.150Z,1.70